Time;durP1;ratioP1;P1;durP2;ratioP2;P2;SDS_P1;SDS_P2;PMS_P1;PMS_P2;Temp;Humidity;BMP_temperature;BMP_pressure;BME280_temperature;BME280_humidity;BME280_pressure;Samples;Min_cycle;Max_cycle;Signal;HPM_P1;HPM_P2
2023/11/13 00:00:38;;;;;;;8.00;5.10;;;;;;;8.80;85.61;98745.84;79444;1297;3013193;-71
2023/11/13 00:03:07;;;;;;;8.60;5.30;;;;;;;8.58;86.17;98749.15;79622;1301;3011798;-68
2023/11/13 00:05:35;;;;;;;13.70;5.70;;;;;;;8.23;87.63;98755.20;78204;1301;3052236;-71
2023/11/13 00:08:02;;;;;;;9.70;6.20;;;;;;;7.91;89.60;98755.26;79466;1301;3013236;-73
2023/11/13 00:10:29;;;;;;;8.80;4.70;;;;;;;7.85;90.34;98754.86;79376;1297;3011612;-69
2023/11/13 00:12:57;;;;;;;10.50;5.00;;;;;;;8.32;89.19;98754.08;78227;1300;3049050;-73
2023/11/13 00:15:24;;;;;;;8.60;4.40;;;;;;;8.62;86.98;98757.30;79463;1298;3013007;-69
2023/11/13 00:17:50;;;;;;;8.60;5.40;;;;;;;8.51;86.89;98751.36;79447;1301;3011615;-75
2023/11/13 00:20:19;;;;;;;8.30;5.70;;;;;;;8.18;87.74;98765.60;78358;1301;3026474;-71
2023/11/13 00:22:46;;;;;;;7.90;5.30;;;;;;;8.10;88.43;98761.02;79465;1298;3011549;-69
2023/11/13 00:25:13;;;;;;;8.70;6.00;;;;;;;8.09;88.18;98764.25;79342;1300;3011745;-68
2023/11/13 00:27:40;;;;;;;7.50;4.10;;;;;;;8.09;88.46;98775.03;78114;1301;3048557;-73
2023/11/13 00:30:07;;;;;;;6.30;4.50;;;;;;;8.60;86.67;98777.02;79581;1301;3018991;-72
2023/11/13 00:32:35;;;;;;;9.10;5.60;;;;;;;8.71;85.63;98781.90;79432;1301;3013125;-66
2023/11/13 00:35:03;;;;;;;8.90;6.10;;;;;;;8.61;85.75;98783.02;78222;1301;3052818;-65
2023/11/13 00:37:30;;;;;;;6.90;4.80;;;;;;;8.17;87.56;98785.39;79543;1297;3011659;-68
2023/11/13 00:39:57;;;;;;;10.60;5.70;;;;;;;8.24;87.20;98797.04;79299;1299;3011949;-66
2023/11/13 00:42:25;;;;;;;9.30;5.60;;;;;;;8.19;86.90;98791.34;78214;1299;3048691;-66
2023/11/13 00:44:52;;;;;;;7.20;4.90;;;;;;;7.79;88.70;98799.38;79509;1298;3013643;-69
2023/11/13 00:47:19;;;;;;;8.30;5.00;;;;;;;8.29;87.76;98802.27;79466;1301;3011636;-73
2023/11/13 00:49:46;;;;;;;8.00;4.80;;;;;;;8.31;87.25;98805.08;78204;1301;3051371;-71
2023/11/13 00:52:13;;;;;;;7.40;4.60;;;;;;;8.49;86.43;98809.27;79346;1299;3013809;-68
2023/11/13 00:54:40;;;;;;;10.50;5.90;;;;;;;8.37;85.74;98814.19;79507;1301;3011653;-69
2023/11/13 00:57:08;;;;;;;6.80;5.30;;;;;;;7.90;87.83;98821.20;78194;1299;3026647;-69
2023/11/13 00:59:34;;;;;;;9.40;5.70;;;;;;;7.98;87.64;98817.95;79452;1300;3013013;-66
2023/11/13 01:02:02;;;;;;;8.30;5.20;;;;;;;7.72;88.55;98818.60;79400;1301;3011560;-71
2023/11/13 01:04:31;;;;;;;9.60;4.90;;;;;;;8.31;88.00;98822.89;78289;1301;3051611;-69
2023/11/13 01:06:58;;;;;;;10.70;5.30;;;;;;;8.41;86.33;98827.87;79518;1299;3013657;-71
2023/11/13 01:09:25;;;;;;;15.80;5.40;;;;;;;8.24;86.28;98834.71;79499;1301;3011412;-72
2023/11/13 01:11:53;;;;;;;9.40;4.90;;;;;;;7.97;87.89;98839.96;78253;1301;3049021;-72
2023/11/13 01:14:19;;;;;;;10.00;5.40;;;;;;;7.76;88.19;98844.00;79478;1301;3018427;-69
2023/11/13 01:16:46;;;;;;;7.70;5.40;;;;;;;7.71;88.93;98840.77;79374;1301;3013718;-72
2023/11/13 01:19:14;;;;;;;8.50;5.20;;;;;;;7.63;88.94;98844.23;78219;1299;3026918;-69
2023/11/13 01:21:40;;;;;;;8.50;5.20;;;;;;;7.54;90.00;98837.93;79376;1307;3013886;-70
2023/11/13 01:24:07;;;;;;;8.40;4.90;;;;;;;8.15;87.49;98839.58;79469;1299;3011930;-71
2023/11/13 01:26:35;;;;;;;17.70;4.90;;;;;;;8.26;86.16;98840.85;78196;1297;3026677;-73
2023/11/13 01:29:02;;;;;;;11.40;6.20;;;;;;;7.99;87.41;98855.36;79397;1301;3013158;-68
2023/11/13 01:31:29;;;;;;;10.50;5.60;;;;;;;7.81;87.70;98858.31;79338;1301;3013753;-69
2023/11/13 01:33:57;;;;;;;9.50;5.70;;;;;;;7.56;88.68;98856.65;78127;1300;3026637;-69
2023/11/13 01:36:23;;;;;;;10.90;6.20;;;;;;;7.63;88.40;98852.95;79372;1303;3013320;-69
2023/11/13 01:38:50;;;;;;;7.40;4.80;;;;;;;7.42;89.68;98848.77;79375;1300;3013519;-71
2023/11/13 01:41:18;;;;;;;9.10;5.40;;;;;;;7.91;88.46;98859.86;78231;1299;3026957;-72
2023/11/13 01:43:45;;;;;;;9.30;5.20;;;;;;;8.34;86.04;98851.70;79431;1301;3018840;-68
2023/11/13 01:46:12;;;;;;;8.60;5.70;;;;;;;8.12;86.28;98857.92;79406;1298;3013086;-67
2023/11/13 01:48:39;;;;;;;8.50;5.40;;;;;;;7.95;86.46;98861.00;78232;1302;3026023;-72
2023/11/13 01:51:08;;;;;;;9.30;5.20;;;;;;;7.94;86.79;98864.18;79461;1299;3013674;-69
2023/11/13 01:53:34;;;;;;;9.10;6.20;;;;;;;7.79;87.18;98859.70;79413;1301;3011648;-71
2023/11/13 01:56:03;;;;;;;11.40;6.70;;;;;;;7.54;87.80;98864.27;77950;1304;3048679;-71
2023/11/13 01:58:29;;;;;;;6.30;4.00;;;;;;;7.50;88.30;98866.05;79360;1312;3013009;-69
2023/11/13 02:00:56;;;;;;;10.00;6.10;;;;;;;8.24;86.12;98869.95;79449;1298;3011848;-68
2023/11/13 02:03:24;;;;;;;8.30;6.00;;;;;;;8.44;84.84;98869.80;78411;1298;3027974;-71
2023/11/13 02:05:51;;;;;;;10.10;5.70;;;;;;;8.50;84.12;98872.92;79371;1298;3013506;-69
2023/11/13 02:08:19;;;;;;;10.00;7.10;;;;;;;8.27;84.17;98874.64;79258;1298;3011468;-68
2023/11/13 02:10:47;;;;;;;11.20;6.70;;;;;;;7.93;85.47;98879.61;78091;1311;3051205;-73
2023/11/13 02:13:14;;;;;;;9.10;6.40;;;;;;;7.78;85.93;98881.52;79250;1300;3015034;-70
2023/11/13 02:15:41;;;;;;;12.90;7.50;;;;;;;7.55;87.25;98879.52;79390;1301;3011605;-68
2023/11/13 02:18:09;;;;;;;7.90;5.40;;;;;;;7.47;87.99;98879.64;78200;1299;3051832;-68
2023/11/13 02:20:36;;;;;;;12.00;6.40;;;;;;;8.03;86.74;98881.98;79487;1298;3012880;-67
2023/11/13 02:23:03;;;;;;;10.60;6.70;;;;;;;8.37;84.07;98886.07;79379;1301;3011370;-69
2023/11/13 02:25:33;;;;;;;8.40;5.70;;;;;;;8.30;83.79;98893.80;78312;1302;3028874;-69
2023/11/13 02:28:04;;;;;;;11.20;6.20;;;;;;;8.36;83.09;98910.20;79613;1297;3013093;-68
2023/11/13 02:30:36;;;;;;;9.80;5.70;;;;;;;7.93;84.42;98900.16;78106;1301;3049619;-66
2023/11/13 02:33:03;;;;;;;10.60;7.10;;;;;;;7.84;85.04;98900.17;79372;1301;3011773;-68
2023/11/13 02:35:31;;;;;;;10.50;6.40;;;;;;;7.62;86.06;98904.04;78232;1300;3026291;-68
2023/11/13 02:37:58;;;;;;;10.00;5.80;;;;;;;7.53;86.89;98911.72;79418;1301;3018717;-68
2023/11/13 02:40:25;;;;;;;9.80;6.40;;;;;;;8.05;86.49;98910.98;79391;1301;3012876;-66
2023/11/13 02:42:53;;;;;;;13.30;5.80;;;;;;;8.44;83.93;98916.70;78292;1301;3026719;-70
2023/11/13 02:45:20;;;;;;;11.80;6.20;;;;;;;8.33;83.81;98924.88;79407;1301;3013424;-70
2023/11/13 02:47:47;;;;;;;9.90;6.50;;;;;;;8.24;83.91;98921.41;79360;1304;3011605;-65
2023/11/13 02:50:16;;;;;;;9.30;6.20;;;;;;;8.19;83.88;98933.41;78214;1299;3052799;-69
2023/11/13 02:52:42;;;;;;;10.00;6.80;;;;;;;7.93;84.31;98936.27;79558;1299;3013449;-68
2023/11/13 02:55:09;;;;;;;9.50;6.00;;;;;;;7.75;85.27;98937.70;79373;1301;3011656;-67
2023/11/13 02:57:37;;;;;;;11.30;5.50;;;;;;;7.71;85.26;98943.81;78204;1301;3026135;-68
2023/11/13 03:00:09;;;;;;;11.10;5.90;;;;;;;7.96;85.76;98940.48;79399;1301;3012937;-66
2023/11/13 03:02:37;;;;;;;10.00;5.60;;;;;;;8.36;84.16;98943.05;78197;1297;3053522;-70
2023/11/13 03:05:06;;;;;;;10.10;6.30;;;;;;;8.38;83.45;98951.65;79432;1301;3013032;-73
2023/11/13 03:07:33;;;;;;;9.70;6.00;;;;;;;8.09;84.63;98947.56;79393;1298;3013717;-67
2023/11/13 03:10:01;;;;;;;9.90;6.30;;;;;;;8.16;83.83;98957.96;78263;1298;3056438;-68
2023/11/13 03:12:27;;;;;;;11.30;7.20;;;;;;;7.86;84.80;98956.94;79391;1304;3013134;-73
2023/11/13 03:14:54;;;;;;;11.70;6.60;;;;;;;7.50;86.76;98951.46;79364;1296;3013016;-69
2023/11/13 03:17:22;;;;;;;7.80;4.90;;;;;;;7.39;87.81;98951.55;78379;1301;3026007;-70
2023/11/13 03:19:50;;;;;;;9.20;5.70;;;;;;;7.96;86.68;98957.58;79568;1300;3013195;-71
2023/11/13 03:22:16;;;;;;;9.20;6.10;;;;;;;8.20;84.87;98962.49;79413;1298;3011666;-70
2023/11/13 03:24:46;;;;;;;9.20;6.40;;;;;;;8.21;84.34;98960.14;78241;1297;3056733;-69
2023/11/13 03:27:13;;;;;;;14.60;7.20;;;;;;;8.18;84.55;98967.48;79505;1295;3013166;-69
2023/11/13 03:29:39;;;;;;;12.40;6.80;;;;;;;7.81;85.48;98957.23;79669;1297;3013365;-75
2023/11/13 03:32:08;;;;;;;10.10;7.00;;;;;;;7.60;86.56;98959.46;78277;1301;3052843;-74
2023/11/13 03:34:35;;;;;;;11.80;6.50;;;;;;;7.44;87.51;98951.27;79614;1301;3013749;-71
2023/11/13 03:37:03;;;;;;;13.40;6.70;;;;;;;7.40;87.52;98967.55;79680;1298;3011667;-74
2023/11/13 03:39:31;;;;;;;9.10;5.70;;;;;;;7.62;88.08;98965.41;78185;1300;3056586;-68
2023/11/13 03:41:58;;;;;;;11.50;6.70;;;;;;;7.98;85.79;98970.05;79450;1299;3012928;-68
2023/11/13 03:44:24;;;;;;;11.70;6.70;;;;;;;7.98;85.47;98961.29;79329;1301;3013243;-68
2023/11/13 03:46:52;;;;;;;12.90;7.60;;;;;;;7.81;85.98;98962.98;78330;1298;3053817;-71
2023/11/13 03:49:19;;;;;;;11.60;7.10;;;;;;;7.65;86.45;98966.80;79558;1300;3013654;-73
2023/11/13 03:51:46;;;;;;;12.80;7.60;;;;;;;7.54;86.95;98967.45;79484;1301;3013519;-67
2023/11/13 03:54:15;;;;;;;14.00;7.20;;;;;;;7.32;87.98;98976.48;78441;1301;3056694;-69
2023/11/13 03:56:41;;;;;;;12.20;7.00;;;;;;;7.23;88.85;98976.09;79453;1298;3013044;-69
2023/11/13 03:59:08;;;;;;;11.50;6.80;;;;;;;7.65;88.41;98984.44;79459;1299;3013435;-68
2023/11/13 04:01:36;;;;;;;10.40;6.30;;;;;;;8.06;85.54;98989.11;78341;1301;3025474;-69
2023/11/13 04:04:03;;;;;;;11.40;7.30;;;;;;;7.99;85.65;98986.55;79535;1297;3013599;-64
2023/11/13 04:06:31;;;;;;;12.60;6.90;;;;;;;7.80;86.03;98984.42;79523;1298;3011579;-67
2023/11/13 04:08:58;;;;;;;13.40;7.70;;;;;;;7.76;86.07;98984.31;78277;1298;3055728;-72
2023/11/13 04:11:26;;;;;;;11.90;7.80;;;;;;;7.66;85.93;98984.05;79518;1297;3012996;-70
2023/11/13 04:13:57;;;;;;;15.30;8.40;;;;;;;7.17;88.76;98989.98;79069;1301;3011907;-68
2023/11/13 04:16:25;;;;;;;9.90;6.20;;;;;;;7.27;88.96;98987.92;79404;1297;3013182;-74
2023/11/13 04:18:52;;;;;;;12.20;6.90;;;;;;;7.78;87.65;98993.12;79584;1301;3011922;-72
2023/11/13 04:21:19;;;;;;;13.10;7.30;;;;;;;7.89;86.10;98999.48;78358;1301;3069683;-70
2023/11/13 04:23:46;;;;;;;11.30;7.30;;;;;;;7.94;85.98;99000.21;79543;1297;3012857;-71
2023/11/13 04:26:13;;;;;;;12.60;8.00;;;;;;;7.87;85.88;99007.40;79554;1301;3013529;-72
2023/11/13 04:28:41;;;;;;;11.00;7.80;;;;;;;7.58;87.07;99014.29;78870;1299;3055010;-73
2023/11/13 04:31:13;;;;;;;14.20;8.00;;;;;;;7.36;87.62;99008.32;79533;1301;3018619;-71
2023/11/13 04:33:41;;;;;;;13.00;8.10;;;;;;;7.27;88.11;99016.86;78123;1298;3053467;-70
2023/11/13 04:36:08;;;;;;;13.70;6.20;;;;;;;7.20;88.29;99013.70;79462;1298;3013407;-69
2023/11/13 04:38:37;;;;;;;11.20;7.30;;;;;;;7.83;87.51;99019.86;79504;1296;3011884;-71
2023/11/13 04:41:05;;;;;;;13.70;7.70;;;;;;;7.93;85.88;99015.48;78317;1298;3048820;-73
2023/11/13 04:43:32;;;;;;;14.70;7.90;;;;;;;8.04;85.36;99020.95;79512;1300;3018737;-68
2023/11/13 04:45:59;;;;;;;11.50;7.80;;;;;;;7.69;86.11;99030.04;79458;1298;3011594;-68
2023/11/13 04:48:27;;;;;;;13.20;8.10;;;;;;;7.45;87.24;99028.77;78292;1301;3026593;-74
2023/11/13 04:50:53;;;;;;;12.90;7.70;;;;;;;7.29;88.06;99037.29;79661;1297;3013403;-73
2023/11/13 04:53:20;;;;;;;13.00;8.00;;;;;;;7.21;88.33;99040.34;79446;1301;3011495;-68
2023/11/13 04:55:48;;;;;;;12.90;6.90;;;;;;;7.20;88.82;99040.40;78528;1298;3026291;-72
2023/11/13 04:58:15;;;;;;;11.70;7.50;;;;;;;7.39;88.73;99046.70;79402;1298;3013420;-71
2023/11/13 05:00:41;;;;;;;11.70;6.80;;;;;;;8.08;86.17;99045.48;79500;1301;3011713;-73
2023/11/13 05:03:09;;;;;;;12.30;7.20;;;;;;;7.91;85.48;99051.16;78391;1298;3026522;-71
2023/11/13 05:05:36;;;;;;;15.70;7.60;;;;;;;7.66;86.56;99057.08;79474;1301;3013475;-72
2023/11/13 05:08:04;;;;;;;13.20;8.80;;;;;;;7.68;86.34;99062.20;79527;1298;3011779;-67
2023/11/13 05:10:33;;;;;;;14.90;8.50;;;;;;;7.42;86.95;99070.75;78227;1296;3049388;-69
2023/11/13 05:12:59;;;;;;;22.00;10.00;;;;;;;7.26;87.97;99069.15;79586;1301;3013592;-68
2023/11/13 05:15:26;;;;;;;12.20;7.40;;;;;;;7.30;88.61;99072.21;79505;1301;3011866;-67
2023/11/13 05:17:54;;;;;;;13.20;7.70;;;;;;;7.89;87.14;99071.14;78243;1301;3052586;-71
2023/11/13 05:20:21;;;;;;;14.60;7.80;;;;;;;8.11;85.24;99071.67;79545;1297;3013274;-70
2023/11/13 05:22:51;;;;;;;12.40;8.30;;;;;;;7.99;85.59;99074.45;79392;1299;3011520;-72
2023/11/13 05:25:19;;;;;;;15.60;8.60;;;;;;;8.01;85.14;99083.04;78309;1298;3049319;-71
2023/11/13 05:27:45;;;;;;;16.90;9.30;;;;;;;7.92;84.79;99084.05;79421;1300;3013122;-73
2023/11/13 05:30:12;;;;;;;15.20;9.40;;;;;;;7.70;85.48;99085.98;79485;1298;3013413;-68
2023/11/13 05:32:40;;;;;;;16.50;8.90;;;;;;;7.58;86.02;99083.30;78197;1300;3026655;-74
2023/11/13 05:35:07;;;;;;;11.00;7.50;;;;;;;7.40;87.39;99082.38;79650;1297;3018756;-67
2023/11/13 05:37:34;;;;;;;16.10;8.70;;;;;;;7.91;86.45;99082.34;79409;1298;3011437;-67
2023/11/13 05:40:02;;;;;;;17.20;9.70;;;;;;;8.32;84.79;99083.92;78259;1299;3025509;-73
2023/11/13 05:42:29;;;;;;;14.40;9.20;;;;;;;8.20;83.65;99089.30;79616;1298;3012949;-71
2023/11/13 05:44:56;;;;;;;16.50;9.70;;;;;;;8.02;84.41;99096.05;79525;1300;3013973;-73
2023/11/13 05:47:24;;;;;;;17.10;9.80;;;;;;;7.94;84.84;99098.73;78228;1298;3052080;-68
2023/11/13 05:49:50;;;;;;;13.50;9.00;;;;;;;7.73;85.64;99100.98;79425;1298;3015222;-68
2023/11/13 05:52:17;;;;;;;18.60;11.30;;;;;;;7.55;85.85;99105.58;76794;1298;6453414;-69
2023/11/13 05:54:45;;;;;;;13.90;8.00;;;;;;;7.17;88.17;99104.66;78337;1298;3048828;-72
2023/11/13 05:57:12;;;;;;;16.40;9.20;;;;;;;7.78;87.44;99106.63;79512;1298;3018651;-68
2023/11/13 05:59:38;;;;;;;16.60;9.60;;;;;;;8.10;85.17;99104.99;79509;1301;3011905;-71
2023/11/13 06:02:07;;;;;;;17.60;10.80;;;;;;;8.04;84.51;99113.36;78154;1301;3026513;-73
2023/11/13 06:04:35;;;;;;;14.50;9.60;;;;;;;7.80;84.91;99111.20;79669;1297;3012929;-73
2023/11/13 06:07:03;;;;;;;19.80;10.00;;;;;;;7.89;84.79;99113.48;79148;1298;3011509;-71
2023/11/13 06:09:32;;;;;;;17.90;9.70;;;;;;;7.69;84.78;99117.56;78311;1298;3048739;-68
2023/11/13 06:11:58;;;;;;;19.00;10.50;;;;;;;7.38;86.37;99110.13;79609;1301;3013576;-72
2023/11/13 06:14:25;;;;;;;14.90;8.70;;;;;;;7.33;87.72;99106.41;79558;1298;3013773;-70
2023/11/13 06:16:53;;;;;;;18.20;9.80;;;;;;;7.99;85.58;99127.77;78060;1301;3052334;-67
2023/11/13 06:19:21;;;;;;;14.80;8.20;;;;;;;8.23;83.77;99124.55;79340;1298;3021076;-68
2023/11/13 06:21:47;;;;;;;17.70;10.10;;;;;;;8.21;82.75;99125.86;79115;1301;3012894;-68
2023/11/13 06:24:15;;;;;;;18.70;9.20;;;;;;;8.00;82.96;99132.12;78107;1295;3050887;-67
2023/11/13 06:26:42;;;;;;;22.30;10.10;;;;;;;7.82;83.72;99133.97;79481;1301;3012279;-68
2023/11/13 06:29:10;;;;;;;17.70;11.30;;;;;;;7.84;83.09;99134.02;79563;1298;3013389;-71
2023/11/13 06:31:38;;;;;;;18.20;12.10;;;;;;;7.47;84.55;99122.74;78233;1301;3051905;-71
2023/11/13 06:34:05;;;;;;;15.80;10.00;;;;;;;7.52;84.34;99125.63;79646;1298;3013578;-70
2023/11/13 06:36:32;;;;;;;18.20;10.10;;;;;;;7.41;84.55;99150.25;79612;1301;3011931;-71
2023/11/13 06:39:00;;;;;;;21.40;10.70;;;;;;;7.97;82.93;99149.89;78217;1298;3027624;-71
2023/11/13 06:41:26;;;;;;;19.30;11.30;;;;;;;8.31;81.36;99134.07;79670;1296;3013284;-69
2023/11/13 06:43:53;;;;;;;20.70;12.00;;;;;;;8.28;81.23;99147.45;79551;1300;3011845;-72
2023/11/13 06:46:21;;;;;;;16.80;10.00;;;;;;;8.10;80.93;99149.13;78645;1300;3025401;-73
2023/11/13 06:48:48;;;;;;;22.70;11.50;;;;;;;8.02;81.78;99143.66;79575;1300;3020748;-71
2023/11/13 06:51:15;;;;;;;23.60;12.60;;;;;;;7.63;83.10;99151.71;79531;1297;3011835;-73
2023/11/13 06:53:43;;;;;;;17.00;10.70;;;;;;;7.60;83.48;99162.13;78381;1297;3048370;-72
2023/11/13 06:56:10;;;;;;;17.30;10.10;;;;;;;7.51;83.89;99167.52;79517;1296;3013039;-74
2023/11/13 06:58:37;;;;;;;17.30;9.90;;;;;;;8.31;81.54;99163.02;79437;1298;3011891;-70
2023/11/13 07:01:05;;;;;;;19.00;11.00;;;;;;;8.52;79.42;99150.82;78613;1298;3028220;-71
2023/11/13 07:03:32;;;;;;;20.30;11.10;;;;;;;8.24;80.79;99152.58;79680;1297;3013404;-69
2023/11/13 07:05:59;;;;;;;25.80;13.70;;;;;;;8.50;80.06;99148.89;79645;1296;3011671;-70
2023/11/13 07:08:28;;;;;;;19.00;10.50;;;;;;;8.37;79.81;99163.17;78739;1297;3048787;-72
2023/11/13 07:10:55;;;;;;;19.60;11.30;;;;;;;8.10;79.97;99165.20;79656;1297;3012737;-72
2023/11/13 07:13:21;;;;;;;18.80;10.30;;;;;;;8.18;79.91;99152.59;80021;1298;3014165;-68
2023/11/13 07:15:50;;;;;;;18.50;10.00;;;;;;;8.10;79.28;99150.20;78687;1297;3052157;-68
2023/11/13 07:18:17;;;;;;;22.00;12.10;;;;;;;7.95;80.04;99148.60;79521;1300;3013338;-68
2023/11/13 07:20:43;;;;;;;15.50;9.20;;;;;;;7.93;80.38;99149.38;79637;1298;3013742;-69
2023/11/13 07:23:16;;;;;;;15.60;9.90;;;;;;;8.67;78.53;99142.84;78200;1298;3048673;-71
2023/11/13 07:25:48;;;;;;;16.40;8.70;;;;;;;8.78;76.41;99149.89;79798;1298;3011603;-67
2023/11/13 07:28:17;;;;;;;19.10;10.90;;;;;;;8.76;76.44;99153.17;78076;1299;3048876;-68
2023/11/13 07:30:44;;;;;;;18.00;10.10;;;;;;;8.59;76.94;99162.70;79598;1301;3013660;-71
2023/11/13 07:33:10;;;;;;;21.20;11.50;;;;;;;8.70;76.35;99165.21;79601;1301;3011817;-69
2023/11/13 07:35:40;;;;;;;16.50;9.70;;;;;;;8.59;76.75;99167.05;78350;1297;3051855;-68
2023/11/13 07:38:10;;;;;;;17.70;10.40;;;;;;;8.32;77.42;99166.27;79410;1297;3011670;-69
2023/11/13 07:40:38;;;;;;;15.60;10.00;;;;;;;8.20;77.80;99171.84;78463;1298;3048744;-67
2023/11/13 07:43:08;;;;;;;18.20;10.50;;;;;;;8.14;77.76;99179.61;79438;1299;3019036;-68
2023/11/13 07:45:38;;;;;;;16.60;10.30;;;;;;;8.24;77.66;99160.95;78418;1297;3052417;-68
2023/11/13 07:48:05;;;;;;;16.40;9.20;;;;;;;8.13;78.76;99165.22;79380;1298;3011637;-66
2023/11/13 07:50:31;;;;;;;16.00;8.90;;;;;;;8.81;77.67;99163.12;79391;1297;3011768;-66
2023/11/13 07:52:59;;;;;;;16.60;9.00;;;;;;;9.46;74.58;99170.84;78182;1297;3056437;-67
2023/11/13 07:55:27;;;;;;;14.60;8.50;;;;;;;9.62;73.19;99188.27;79658;1301;3013696;-66
2023/11/13 07:57:55;;;;;;;13.20;8.40;;;;;;;9.48;72.20;99172.31;79412;1298;3012805;-66
2023/11/13 08:00:23;;;;;;;17.70;9.40;;;;;;;9.10;73.73;99182.27;78411;1298;3053773;-67
2023/11/13 08:02:51;;;;;;;18.20;9.80;;;;;;;9.00;74.23;99167.64;79479;1298;3013557;-66
2023/11/13 08:05:18;;;;;;;16.40;9.70;;;;;;;8.72;75.47;99170.30;79183;1301;3011926;-65
2023/11/13 08:07:46;;;;;;;17.30;9.50;;;;;;;8.59;76.38;99174.92;78048;1301;3055622;-66
2023/11/13 08:10:13;;;;;;;15.30;8.90;;;;;;;8.51;76.61;99184.78;79422;1298;3013223;-65
2023/11/13 08:12:45;;;;;;;17.90;10.00;;;;;;;8.50;76.30;99184.31;79453;1299;3011470;-68
2023/11/13 08:15:13;;;;;;;14.90;8.50;;;;;;;8.48;76.48;99182.51;78172;1297;3052423;-67
2023/11/13 08:17:44;;;;;;;14.70;9.70;;;;;;;8.50;76.62;99180.30;79381;1300;3012936;-66
2023/11/13 08:20:14;;;;;;;14.90;9.30;;;;;;;8.53;76.18;99182.08;78136;1301;3051169;-66
2023/11/13 08:22:47;;;;;;;16.20;9.20;;;;;;;8.59;75.16;99190.95;79440;1298;3013438;-66
2023/11/13 08:25:17;;;;;;;16.80;8.50;;;;;;;8.34;74.77;99202.81;78262;1298;3052341;-67
2023/11/13 08:27:44;;;;;;;13.30;8.50;;;;;;;8.46;74.28;99192.54;79491;1299;3011799;-67
2023/11/13 08:30:14;;;;;;;18.00;9.30;;;;;;;8.52;74.57;99187.38;79155;1300;3011778;-67
2023/11/13 08:32:41;;;;;;;15.30;8.70;;;;;;;8.48;74.85;99197.69;79387;1295;3013485;-66
2023/11/13 08:35:12;;;;;;;14.40;8.70;;;;;;;8.25;75.21;99199.45;79475;1295;3012703;-68
2023/11/13 08:37:46;;;;;;;16.40;8.80;;;;;;;8.26;75.59;99194.69;78084;1298;3057660;-67
2023/11/13 08:40:13;;;;;;;10.80;7.20;;;;;;;8.30;75.82;99192.92;79654;1296;3011687;-67
2023/11/13 08:42:41;;;;;;;14.70;7.60;;;;;;;8.41;75.63;99197.89;78367;1300;3053471;-67
2023/11/13 08:45:15;;;;;;;13.80;7.70;;;;;;;8.76;74.76;99192.09;79426;1297;3013085;-66
2023/11/13 08:47:47;;;;;;;15.00;8.00;;;;;;;8.82;73.86;99189.49;78207;1296;3052476;-66
2023/11/13 08:50:14;;;;;;;14.20;7.80;;;;;;;8.91;73.91;99192.47;79511;1297;3011747;-67
2023/11/13 08:52:44;;;;;;;13.10;7.90;;;;;;;8.87;74.44;99187.65;78234;1299;3050487;-66
2023/11/13 08:55:12;;;;;;;13.80;8.40;;;;;;;8.98;74.15;99182.97;79652;1298;3012865;-67
2023/11/13 08:57:42;;;;;;;14.30;8.50;;;;;;;8.87;73.75;99182.20;78306;1300;3026241;-66
2023/11/13 09:00:18;;;;;;;14.40;7.50;;;;;;;8.60;74.31;99188.80;79433;1301;3013231;-68
2023/11/13 09:02:53;;;;;;;15.00;8.60;;;;;;;8.64;74.36;99185.61;78257;1298;3053183;-68
2023/11/13 09:05:25;;;;;;;16.30;8.80;;;;;;;8.52;75.11;99188.59;78849;1297;3011941;-66
2023/11/13 09:07:53;;;;;;;12.80;7.80;;;;;;;8.49;75.38;99190.11;79668;1301;3011827;-67
2023/11/13 09:10:26;;;;;;;14.80;8.40;;;;;;;8.64;74.66;99196.80;78422;1299;3027162;-66
2023/11/13 09:12:59;;;;;;;15.00;6.80;;;;;;;8.60;74.88;99185.82;79199;1299;3011870;-67
2023/11/13 09:15:31;;;;;;;13.10;7.70;;;;;;;8.57;74.83;99186.19;78407;1296;3057119;-67
2023/11/13 09:18:06;;;;;;;13.80;8.20;;;;;;;8.54;75.00;99187.44;79668;1296;3011940;-67
2023/11/13 09:20:34;;;;;;;17.50;9.10;;;;;;;8.46;75.13;99184.17;78286;1299;3053296;-67
2023/11/13 09:23:04;;;;;;;15.10;8.10;;;;;;;8.48;75.42;99186.50;79612;1300;3013378;-66
2023/11/13 09:25:31;;;;;;;13.10;7.60;;;;;;;8.41;75.87;99182.30;79638;1301;3011603;-68
2023/11/13 09:27:59;;;;;;;14.00;8.00;;;;;;;8.43;76.02;99195.53;78385;1298;3069477;-68
2023/11/13 09:30:26;;;;;;;14.50;6.90;;;;;;;8.38;76.19;99194.35;79568;1298;3013028;-65
2023/11/13 09:32:53;;;;;;;10.20;5.50;;;;;;;8.45;76.06;99196.61;79452;1295;3011592;-66
2023/11/13 09:35:22;;;;;;;11.40;6.00;;;;;;;8.93;74.31;99200.56;78574;1299;3025813;-65
2023/11/13 09:37:50;;;;;;;10.80;6.20;;;;;;;9.40;72.33;99199.19;79492;1299;3012954;-65
2023/11/13 09:40:25;;;;;;;11.00;6.50;;;;;;;9.45;71.39;99193.51;78835;1299;3013310;-65
2023/11/13 09:42:54;;;;;;;12.30;7.30;;;;;;;9.40;71.27;99200.97;79502;1299;3013412;-65
2023/11/13 09:45:22;;;;;;;13.80;6.70;;;;;;;9.20;71.71;99197.42;78469;1298;3070723;-64
2023/11/13 09:47:56;;;;;;;13.40;7.20;;;;;;;9.00;72.02;99195.42;79383;1296;3013854;-64
2023/11/13 09:50:24;;;;;;;12.00;7.20;;;;;;;8.83;72.92;99195.73;78235;1301;3050012;-64
2023/11/13 09:52:52;;;;;;;9.90;6.80;;;;;;;8.89;72.99;99203.44;79254;1296;3013317;-64
2023/11/13 09:55:20;;;;;;;9.70;6.60;;;;;;;8.79;72.85;99192.44;79446;1296;3013141;-64
2023/11/13 09:57:49;;;;;;;10.20;6.70;;;;;;;8.75;73.30;99200.75;78378;1297;3053432;-65
2023/11/13 10:00:16;;;;;;;10.80;6.70;;;;;;;8.71;73.34;99195.87;79255;1299;3013467;-64
2023/11/13 10:02:46;;;;;;;9.50;5.90;;;;;;;8.76;73.68;99202.41;79645;1298;3013331;-67
2023/11/13 10:05:15;;;;;;;8.00;5.20;;;;;;;8.83;72.33;99195.87;78028;1298;3049461;-65
2023/11/13 10:07:52;;;;;;;9.90;6.10;;;;;;;8.74;72.37;99197.95;79430;1296;3013929;-65
2023/11/13 10:10:24;;;;;;;14.60;6.80;;;;;;;8.68;72.49;99195.71;78256;1301;3052938;-65
2023/11/13 10:12:54;;;;;;;12.10;7.40;;;;;;;8.65;73.62;99197.79;79542;1299;3011382;-67
2023/11/13 10:15:27;;;;;;;11.90;6.00;;;;;;;8.89;72.69;99203.91;78284;1301;3066848;-67
2023/11/13 10:17:56;;;;;;;13.40;6.20;;;;;;;8.98;72.04;99208.84;79451;1298;3011666;-67
2023/11/13 10:20:26;;;;;;;11.00;6.10;;;;;;;9.04;72.23;99200.27;78308;1299;3056922;-69
2023/11/13 10:23:04;;;;;;;10.50;5.40;;;;;;;9.17;71.90;99199.86;79859;1297;3011942;-64
2023/11/13 10:25:50;;;;;;;7.20;4.90;;;;;;;9.27;71.20;99205.94;77890;1300;3052586;-64
2023/11/13 10:28:22;;;;;;;9.60;5.50;;;;;;;9.26;71.49;99204.77;78551;1301;3051089;-66
2023/11/13 10:30:51;;;;;;;8.70;6.10;;;;;;;9.35;71.01;99197.95;79320;1297;3012834;-64
2023/11/13 10:33:19;;;;;;;10.60;5.70;;;;;;;9.39;70.88;99210.95;78285;1298;3052020;-66
2023/11/13 10:35:48;;;;;;;9.50;5.90;;;;;;;9.45;70.76;99205.89;79537;1299;3013496;-66
2023/11/13 10:38:15;;;;;;;8.10;5.20;;;;;;;9.43;70.67;99208.46;80067;1296;3012014;-67
2023/11/13 10:40:59;;;;;;;9.90;5.40;;;;;;;9.60;69.98;99207.77;78235;1300;3050944;-66
2023/11/13 10:43:34;;;;;;;;;;;;;;;9.68;69.99;99195.80;78082;1300;3052571;-65
2023/11/13 10:46:03;;;;;;;11.10;5.40;;;;;;;9.78;69.75;99206.52;78225;1300;3049317;-65
2023/11/13 10:48:36;;;;;;;10.60;6.10;;;;;;;9.94;69.26;99197.67;79821;1295;3013838;-64
2023/11/13 10:51:05;;;;;;;9.80;5.60;;;;;;;9.80;69.27;99199.24;78280;1298;3069603;-64
2023/11/13 10:53:33;;;;;;;9.00;5.20;;;;;;;10.01;68.67;99207.70;79662;1295;3012661;-65
2023/11/13 10:56:00;;;;;;;10.00;5.80;;;;;;;10.08;68.17;99201.88;79363;1295;3013063;-65
2023/11/13 10:58:28;;;;;;;9.40;5.80;;;;;;;10.15;67.72;99200.04;78105;1296;3052268;-69
2023/11/13 11:00:56;;;;;;;9.50;4.60;;;;;;;10.08;66.93;99220.94;79440;1301;3012919;-64
2023/11/13 11:03:24;;;;;;;10.50;5.40;;;;;;;9.82;67.02;99203.48;79487;1300;3012025;-73
2023/11/13 11:05:55;;;;;;;11.20;5.70;;;;;;;10.05;67.09;99204.70;78291;1297;3069038;-64
2023/11/13 11:08:23;;;;;;;8.90;4.90;;;;;;;10.20;66.44;99218.25;79410;1296;3011960;-65
2023/11/13 11:10:52;;;;;;;8.60;5.10;;;;;;;10.14;66.08;99213.04;77982;1298;3055791;-62
2023/11/13 11:13:19;;;;;;;9.10;5.10;;;;;;;10.05;66.11;99221.14;79573;1297;3013750;-64
2023/11/13 11:16:24;;;;;;;8.90;4.70;;;;;;;10.12;66.22;99207.94;79611;1298;3011856;-66
2023/11/13 11:19:05;;;;;;;10.00;5.40;;;;;;;10.18;66.00;99208.77;78070;1298;3054476;-65
2023/11/13 11:21:36;;;;;;;8.40;5.10;;;;;;;10.31;65.44;99200.44;77956;1301;3051845;-67
2023/11/13 11:24:11;;;;;;;9.30;5.00;;;;;;;10.43;64.36;99207.91;79204;1297;3014070;-64